Terminal Aerodrome Forecast
Issued by NWS

Home | Current Version | Previous Version | Text Only | Print | Product List | Glossary On
Versions: 1 2 3 4 5 6 7 8 9 10 11 12 13 14 15 16 17 18 19 20 21 22 23 24 25 26 27 28 29 30
000
FTUS43 KDVN 240600 AAA
TAFBRL
TAF AMD
KBRL 240604Z 2406/2506 09010KT P6SM OVC010
     FM241200 10009KT P6SM OVC014
     FM241400 10011G20KT 4SM -RA BR OVC020
     FM242200 11014G25KT 3SM RA BR OVC015=

USA.gov is the U.S. government's official web portal to all federal, state and local government web resources and services.